sensor_id;sensor_type;location;lat;lon;timestamp;pressure;altitude;pressure_sealevel;temperature;humidity
12247;BME280;6186;52.022;4.692;2022-10-26T00:02:13;101452.97;;;13.16;100.00
12247;BME280;6186;52.022;4.692;2022-10-26T00:04:39;101446.81;;;13.15;100.00
12247;BME280;6186;52.022;4.692;2022-10-26T00:07:04;101437.13;;;13.16;100.00
12247;BME280;6186;52.022;4.692;2022-10-26T00:09:29;101443.28;;;13.16;100.00
12247;BME280;6186;52.022;4.692;2022-10-26T00:11:55;101426.59;;;13.14;100.00
12247;BME280;6186;52.022;4.692;2022-10-26T00:14:20;101430.84;;;13.20;100.00
12247;BME280;6186;52.022;4.692;2022-10-26T00:16:46;101431.72;;;13.20;100.00
12247;BME280;6186;52.022;4.692;2022-10-26T00:19:11;101415.03;;;13.18;100.00
12247;BME280;6186;52.022;4.692;2022-10-26T00:21:36;101409.78;;;13.17;100.00
12247;BME280;6186;52.022;4.692;2022-10-26T00:24:02;101403.75;;;13.12;100.00
12247;BME280;6186;52.022;4.692;2022-10-26T00:26:27;101414.16;;;13.18;100.00
12247;BME280;6186;52.022;4.692;2022-10-26T00:28:53;101402.84;;;13.13;100.00
12247;BME280;6186;52.022;4.692;2022-10-26T00:31:19;101410.63;;;13.19;100.00
12247;BME280;6186;52.022;4.692;2022-10-26T00:33:45;101404.47;;;13.18;100.00
12247;BME280;6186;52.022;4.692;2022-10-26T00:36:11;101403.53;;;13.19;100.00
12247;BME280;6186;52.022;4.692;2022-10-26T00:38:38;101403.59;;;13.18;100.00
12247;BME280;6186;52.022;4.692;2022-10-26T00:41:13;101400.06;;;13.17;100.00
12247;BME280;6186;52.022;4.692;2022-10-26T00:43:41;101414.94;;;13.21;100.00
12247;BME280;6186;52.022;4.692;2022-10-26T00:46:18;101405.19;;;13.23;100.00
12247;BME280;6186;52.022;4.692;2022-10-26T00:48:47;101399.00;;;13.25;100.00
12247;BME280;6186;52.022;4.692;2022-10-26T00:51:32;101391.09;;;13.25;100.00
12247;BME280;6186;52.022;4.692;2022-10-26T00:54:02;101386.72;;;13.22;100.00
12247;BME280;6186;52.022;4.692;2022-10-26T00:56:29;101406.94;;;13.25;100.00
12247;BME280;6186;52.022;4.692;2022-10-26T00:59:00;101405.19;;;13.23;100.00
12247;BME280;6186;52.022;4.692;2022-10-26T01:01:27;101393.06;;;13.16;100.00
12247;BME280;6186;52.022;4.692;2022-10-26T01:03:54;101400.81;;;13.23;100.00
12247;BME280;6186;52.022;4.692;2022-10-26T01:06:20;101400.84;;;13.21;100.00
12247;BME280;6186;52.022;4.692;2022-10-26T01:08:46;101391.19;;;13.20;100.00
12247;BME280;6186;52.022;4.692;2022-10-26T01:11:12;101394.75;;;13.19;100.00
12247;BME280;6186;52.022;4.692;2022-10-26T01:13:38;101390.41;;;13.16;100.00
12247;BME280;6186;52.022;4.692;2022-10-26T01:16:51;101380.72;;;13.15;100.00
12247;BME280;6186;52.022;4.692;2022-10-26T01:22:18;101372.03;;;13.12;100.00
12247;BME280;6186;52.022;4.692;2022-10-26T01:27:39;101375.53;;;13.12;100.00
12247;BME280;6186;52.022;4.692;2022-10-26T01:33:03;101369.38;;;13.12;100.00
12247;BME280;6186;52.022;4.692;2022-10-26T01:35:31;101360.56;;;13.13;100.00
12247;BME280;6186;52.022;4.692;2022-10-26T01:38:12;101351.03;;;13.07;100.00
12247;BME280;6186;52.022;4.692;2022-10-26T01:40:48;101350.81;;;13.13;100.00
12247;BME280;6186;52.022;4.692;2022-10-26T01:43:14;101341.09;;;13.15;100.00
12247;BME280;6186;52.022;4.692;2022-10-26T01:45:43;101343.72;;;13.15;100.00
12247;BME280;6186;52.022;4.692;2022-10-26T01:48:12;101340.31;;;13.12;100.00
12247;BME280;6186;52.022;4.692;2022-10-26T01:50:40;101350.75;;;13.16;100.00
12247;BME280;6186;52.022;4.692;2022-10-26T01:53:11;101356.06;;;13.16;100.00
12247;BME280;6186;52.022;4.692;2022-10-26T02:03:45;101341.06;;;13.17;100.00
12247;BME280;6186;52.022;4.692;2022-10-26T02:06:29;101334.94;;;13.15;100.00
12247;BME280;6186;52.022;4.692;2022-10-26T02:09:27;101325.22;;;13.15;100.00
12247;BME280;6186;52.022;4.692;2022-10-26T02:11:54;101316.47;;;13.13;100.00
12247;BME280;6186;52.022;4.692;2022-10-26T02:14:26;101325.22;;;13.15;100.00
12247;BME280;6186;52.022;4.692;2022-10-26T02:17:01;101320.88;;;13.14;100.00
12247;BME280;6186;52.022;4.692;2022-10-26T02:22:30;101325.31;;;13.12;100.00
12247;BME280;6186;52.022;4.692;2022-10-26T02:25:00;101332.31;;;13.13;100.00
12247;BME280;6186;52.022;4.692;2022-10-26T02:27:33;101335.06;;;13.10;100.00
12247;BME280;6186;52.022;4.692;2022-10-26T02:30:02;101323.75;;;13.05;100.00
12247;BME280;6186;52.022;4.692;2022-10-26T02:32:32;101333.41;;;13.06;100.00
12247;BME280;6186;52.022;4.692;2022-10-26T02:35:01;101323.78;;;13.04;100.00
12247;BME280;6186;52.022;4.692;2022-10-26T02:37:29;101321.16;;;13.02;100.00
12247;BME280;6186;52.022;4.692;2022-10-26T02:39:56;101320.41;;;12.97;100.00
12247;BME280;6186;52.022;4.692;2022-10-26T02:42:26;101315.97;;;12.99;100.00
12247;BME280;6186;52.022;4.692;2022-10-26T02:44:57;101300.38;;;12.90;100.00
12247;BME280;6186;52.022;4.692;2022-10-26T02:47:25;101310.00;;;12.91;100.00
12247;BME280;6186;52.022;4.692;2022-10-26T02:49:51;101314.25;;;12.97;100.00
12247;BME280;6186;52.022;4.692;2022-10-26T02:52:27;101313.38;;;12.96;100.00
12247;BME280;6186;52.022;4.692;2022-10-26T02:55:10;101319.50;;;12.98;100.00
12247;BME280;6186;52.022;4.692;2022-10-26T02:57:40;101326.53;;;12.99;100.00
12247;BME280;6186;52.022;4.692;2022-10-26T03:00:13;101317.72;;;12.99;100.00
12247;BME280;6186;52.022;4.692;2022-10-26T03:02:41;101320.31;;;13.00;100.00
12247;BME280;6186;52.022;4.692;2022-10-26T03:05:12;101321.19;;;13.01;100.00
12247;BME280;6186;52.022;4.692;2022-10-26T03:07:39;101316.78;;;13.01;100.00
12247;BME280;6186;52.022;4.692;2022-10-26T03:10:05;101319.44;;;13.01;100.00
12247;BME280;6186;52.022;4.692;2022-10-26T03:12:30;101314.16;;;13.01;100.00
12247;BME280;6186;52.022;4.692;2022-10-26T03:14:55;101314.16;;;13.01;100.00
12247;BME280;6186;52.022;4.692;2022-10-26T03:17:21;101313.28;;;13.01;100.00
12247;BME280;6186;52.022;4.692;2022-10-26T03:19:46;101298.56;;;12.92;100.00
12247;BME280;6186;52.022;4.692;2022-10-26T03:22:11;101301.00;;;12.98;100.00
12247;BME280;6186;52.022;4.692;2022-10-26T03:24:37;101306.28;;;12.98;100.00
12247;BME280;6186;52.022;4.692;2022-10-26T03:27:02;101301.00;;;12.98;100.00
12247;BME280;6186;52.022;4.692;2022-10-26T03:29:27;101302.81;;;12.96;100.00
12247;BME280;6186;52.022;4.692;2022-10-26T03:31:53;101300.19;;;12.96;100.00
12247;BME280;6186;52.022;4.692;2022-10-26T03:34:19;101305.44;;;12.98;100.00
12247;BME280;6186;52.022;4.692;2022-10-26T03:36:45;101303.66;;;12.98;100.00
12247;BME280;6186;52.022;4.692;2022-10-26T03:39:11;101291.41;;;12.96;100.00
12247;BME280;6186;52.022;4.692;2022-10-26T03:41:39;101299.16;;;13.02;100.00
12247;BME280;6186;52.022;4.692;2022-10-26T03:44:04;101287.78;;;12.98;100.00
12247;BME280;6186;52.022;4.692;2022-10-26T03:46:30;101294.78;;;13.01;100.00
12247;BME280;6186;52.022;4.692;2022-10-26T03:52:16;101291.22;;;13.03;100.00
12247;BME280;6186;52.022;4.692;2022-10-26T03:54:42;101290.25;;;13.06;100.00
12247;BME280;6186;52.022;4.692;2022-10-26T03:57:07;101291.19;;;13.05;100.00
12247;BME280;6186;52.022;4.692;2022-10-26T03:59:32;101291.19;;;13.05;100.00
12247;BME280;6186;52.022;4.692;2022-10-26T04:01:57;101284.94;;;13.07;100.00
12247;BME280;6186;52.022;4.692;2022-10-26T04:04:23;101292.00;;;13.07;100.00
12247;BME280;6186;52.022;4.692;2022-10-26T04:06:48;101289.31;;;13.08;100.00
12247;BME280;6186;52.022;4.692;2022-10-26T04:09:13;101292.88;;;13.07;100.00
12247;BME280;6186;52.022;4.692;2022-10-26T04:11:39;101288.44;;;13.08;100.00
12247;BME280;6186;52.022;4.692;2022-10-26T04:14:04;101287.53;;;13.09;100.00
12247;BME280;6186;52.022;4.692;2022-10-26T04:16:29;101292.78;;;13.10;100.00
12247;BME280;6186;52.022;4.692;2022-10-26T04:18:54;101282.16;;;13.12;100.00
12247;BME280;6186;52.022;4.692;2022-10-26T04:21:20;101279.56;;;13.10;100.00
12247;BME280;6186;52.022;4.692;2022-10-26T04:23:45;101276.00;;;13.11;100.00
12247;BME280;6186;52.022;4.692;2022-10-26T04:26:10;101279.50;;;13.12;100.00
12247;BME280;6186;52.022;4.692;2022-10-26T04:28:35;101280.38;;;13.12;100.00
12247;BME280;6186;52.022;4.692;2022-10-26T04:31:01;101282.16;;;13.12;100.00
12247;BME280;6186;52.022;4.692;2022-10-26T04:33:26;101282.09;;;13.13;100.00
12247;BME280;6186;52.022;4.692;2022-10-26T04:35:51;101280.50;;;13.09;100.00
12247;BME280;6186;52.022;4.692;2022-10-26T04:38:16;101288.31;;;13.12;100.00
12247;BME280;6186;52.022;4.692;2022-10-26T04:40:42;101283.03;;;13.12;100.00
12247;BME280;6186;52.022;4.692;2022-10-26T04:43:07;101281.28;;;13.11;100.00
12247;BME280;6186;52.022;4.692;2022-10-26T04:45:32;101278.63;;;13.11;100.00
12247;BME280;6186;52.022;4.692;2022-10-26T04:48:06;101289.16;;;13.14;100.00
12247;BME280;6186;52.022;4.692;2022-10-26T04:50:32;101284.78;;;13.12;100.00
12247;BME280;6186;52.022;4.692;2022-10-26T04:52:58;101285.56;;;13.15;100.00
12247;BME280;6186;52.022;4.692;2022-10-26T04:55:23;101288.25;;;13.14;100.00
12247;BME280;6186;52.022;4.692;2022-10-26T04:57:49;101289.03;;;13.17;100.00
12247;BME280;6186;52.022;4.692;2022-10-26T05:00:14;101284.72;;;13.15;100.00
12247;BME280;6186;52.022;4.692;2022-10-26T05:02:39;101280.22;;;13.18;100.00
12247;BME280;6186;52.022;4.692;2022-10-26T05:05:05;101281.94;;;13.19;100.00
12247;BME280;6186;52.022;4.692;2022-10-26T05:07:30;101288.97;;;13.20;100.00
12247;BME280;6186;52.022;4.692;2022-10-26T05:09:55;101290.69;;;13.21;100.00
12247;BME280;6186;52.022;4.692;2022-10-26T05:12:21;101287.16;;;13.23;100.00
12247;BME280;6186;52.022;4.692;2022-10-26T05:14:46;101283.75;;;13.19;100.00
12247;BME280;6186;52.022;4.692;2022-10-26T05:17:11;101288.88;;;13.23;100.00
12247;BME280;6186;52.022;4.692;2022-10-26T05:19:37;101290.63;;;13.25;100.00
12247;BME280;6186;52.022;4.692;2022-10-26T05:22:02;101287.97;;;13.25;100.00
12247;BME280;6186;52.022;4.692;2022-10-26T05:24:27;101284.41;;;13.26;100.00
12247;BME280;6186;52.022;4.692;2022-10-26T05:26:53;101283.50;;;13.27;100.00
12247;BME280;6186;52.022;4.692;2022-10-26T05:29:18;101281.75;;;13.26;100.00
12247;BME280;6186;52.022;4.692;2022-10-26T05:31:43;101277.31;;;13.28;100.00
12247;BME280;6186;52.022;4.692;2022-10-26T05:34:08;101281.66;;;13.29;100.00
12247;BME280;6186;52.022;4.692;2022-10-26T05:36:34;101287.78;;;13.31;100.00
12247;BME280;6186;52.022;4.692;2022-10-26T05:38:59;101285.22;;;13.28;100.00
12247;BME280;6186;52.022;4.692;2022-10-26T05:41:25;101291.25;;;13.33;100.00
12247;BME280;6186;52.022;4.692;2022-10-26T05:43:50;101287.81;;;13.29;100.00
12247;BME280;6186;52.022;4.692;2022-10-26T05:46:15;101276.38;;;13.29;100.00
12247;BME280;6186;52.022;4.692;2022-10-26T05:48:41;101278.06;;;13.31;100.00
12247;BME280;6186;52.022;4.692;2022-10-26T05:51:06;101280.72;;;13.31;100.00
12247;BME280;6186;52.022;4.692;2022-10-26T05:53:32;101284.09;;;13.36;100.00
12247;BME280;6186;52.022;4.692;2022-10-26T05:55:57;101285.81;;;13.37;100.00
12247;BME280;6186;52.022;4.692;2022-10-26T05:58:23;101277.03;;;13.37;100.00
12247;BME280;6186;52.022;4.692;2022-10-26T06:01:03;101281.41;;;13.38;100.00
12247;BME280;6186;52.022;4.692;2022-10-26T06:06:23;101274.31;;;13.40;100.00
12247;BME280;6186;52.022;4.692;2022-10-26T06:08:51;101261.97;;;13.39;100.00
12247;BME280;6186;52.022;4.692;2022-10-26T06:11:16;101263.72;;;13.40;100.00
12247;BME280;6186;52.022;4.692;2022-10-26T06:13:42;101266.31;;;13.41;100.00
12247;BME280;6186;52.022;4.692;2022-10-26T06:16:22;101275.16;;;13.40;100.00
12247;BME280;6186;52.022;4.692;2022-10-26T06:24:36;101300.59;;;13.44;100.00
12247;BME280;6186;52.022;4.692;2022-10-26T06:27:18;101290.91;;;13.45;100.00
12247;BME280;6186;52.022;4.692;2022-10-26T06:29:59;101290.84;;;13.46;100.00
12247;BME280;6186;52.022;4.692;2022-10-26T06:32:26;101276.78;;;13.44;100.00
12247;BME280;6186;52.022;4.692;2022-10-26T06:34:59;101279.38;;;13.47;100.00
12247;BME280;6186;52.022;4.692;2022-10-26T06:37:28;101278.44;;;13.48;100.00
12247;BME280;6186;52.022;4.692;2022-10-26T06:39:54;101279.38;;;13.47;100.00
12247;BME280;6186;52.022;4.692;2022-10-26T06:42:21;101279.31;;;13.49;100.00
12247;BME280;6186;52.022;4.692;2022-10-26T06:44:47;101282.78;;;13.51;100.00
12247;BME280;6186;52.022;4.692;2022-10-26T06:47:22;101282.78;;;13.51;100.00
12247;BME280;6186;52.022;4.692;2022-10-26T06:50:06;101285.44;;;13.51;100.00
12247;BME280;6186;52.022;4.692;2022-10-26T06:53:00;101296.91;;;13.50;100.00
12247;BME280;6186;52.022;4.692;2022-10-26T06:55:30;101302.19;;;13.50;100.00
12247;BME280;6186;52.022;4.692;2022-10-26T06:58:02;101304.84;;;13.50;100.00
12247;BME280;6186;52.022;4.692;2022-10-26T07:00:28;101311.06;;;13.49;100.00
12247;BME280;6186;52.022;4.692;2022-10-26T07:02:54;101316.38;;;13.47;100.00
12247;BME280;6186;52.022;4.692;2022-10-26T07:05:20;101316.41;;;13.46;100.00
12247;BME280;6186;52.022;4.692;2022-10-26T07:07:46;101305.94;;;13.43;100.00
12247;BME280;6186;52.022;4.692;2022-10-26T07:10:12;101300.53;;;13.46;100.00
12247;BME280;6186;52.022;4.692;2022-10-26T07:12:38;101309.41;;;13.45;100.00
12247;BME280;6186;52.022;4.692;2022-10-26T07:15:05;101314.69;;;13.45;100.00
12247;BME280;6186;52.022;4.692;2022-10-26T07:17:41;101296.13;;;13.46;100.00
12247;BME280;6186;52.022;4.692;2022-10-26T07:20:06;101300.47;;;13.49;100.00
12247;BME280;6186;52.022;4.692;2022-10-26T07:22:32;101311.06;;;13.49;100.00
12247;BME280;6186;52.022;4.692;2022-10-26T07:24:57;101329.41;;;13.53;100.00
12247;BME280;6186;52.022;4.692;2022-10-26T07:27:23;101331.97;;;13.56;100.00
12247;BME280;6186;52.022;4.692;2022-10-26T07:29:48;101338.03;;;13.60;100.00
12247;BME280;6186;52.022;4.692;2022-10-26T07:32:13;101341.63;;;13.59;100.00
12247;BME280;6186;52.022;4.692;2022-10-26T07:34:38;101342.28;;;13.65;100.00
12247;BME280;6186;52.022;4.692;2022-10-26T07:37:04;101334.25;;;13.68;100.00
12247;BME280;6186;52.022;4.692;2022-10-26T07:39:29;101340.34;;;13.72;100.00
12247;BME280;6186;52.022;4.692;2022-10-26T07:41:57;101338.59;;;13.71;100.00
12247;BME280;6186;52.022;4.692;2022-10-26T07:44:22;101346.25;;;13.80;100.00
12247;BME280;6186;52.022;4.692;2022-10-26T07:46:47;101354.00;;;13.86;100.00
12247;BME280;6186;52.022;4.692;2022-10-26T07:49:12;101364.41;;;13.92;100.00
12247;BME280;6186;52.022;4.692;2022-10-26T07:51:38;101365.94;;;13.99;100.00
12247;BME280;6186;52.022;4.692;2022-10-26T07:54:03;101360.34;;;14.08;100.00
12247;BME280;6186;52.022;4.692;2022-10-26T07:56:28;101364.56;;;14.15;100.00
12247;BME280;6186;52.022;4.692;2022-10-26T07:58:54;101365.22;;;14.22;100.00
12247;BME280;6186;52.022;4.692;2022-10-26T08:01:19;101367.78;;;14.25;100.00
12247;BME280;6186;52.022;4.692;2022-10-26T08:03:45;101370.28;;;14.31;100.00
12247;BME280;6186;52.022;4.692;2022-10-26T08:06:10;101378.13;;;14.34;100.00
12247;BME280;6186;52.022;4.692;2022-10-26T08:08:36;101372.81;;;14.34;100.00
12247;BME280;6186;52.022;4.692;2022-10-26T08:11:02;101386.63;;;14.43;100.00
12247;BME280;6186;52.022;4.692;2022-10-26T08:13:27;101386.50;;;14.48;100.00
12247;BME280;6186;52.022;4.692;2022-10-26T08:16:01;101375.75;;;14.52;100.00
12247;BME280;6186;52.022;4.692;2022-10-26T08:18:27;101372.00;;;14.58;100.00
12247;BME280;6186;52.022;4.692;2022-10-26T08:20:53;101372.75;;;14.63;100.00
12247;BME280;6186;52.022;4.692;2022-10-26T08:23:19;101373.25;;;14.74;100.00
12247;BME280;6186;52.022;4.692;2022-10-26T08:25:44;101365.88;;;14.82;100.00
12247;BME280;6186;52.022;4.692;2022-10-26T08:28:09;101367.31;;;14.92;100.00
12247;BME280;6186;52.022;4.692;2022-10-26T08:30:35;101368.78;;;15.00;100.00
12247;BME280;6186;52.022;4.692;2022-10-26T08:33:05;101361.41;;;15.08;100.00
12247;BME280;6186;52.022;4.692;2022-10-26T08:35:32;101361.00;;;15.21;100.00
12247;BME280;6186;52.022;4.692;2022-10-26T08:37:57;101359.97;;;15.25;100.00
12247;BME280;6186;52.022;4.692;2022-10-26T08:40:26;101370.91;;;15.39;100.00
12247;BME280;6186;52.022;4.692;2022-10-26T08:42:57;101371.56;;;15.47;100.00
12247;BME280;6186;52.022;4.692;2022-10-26T08:47:58;101378.06;;;15.61;100.00
12247;BME280;6186;52.022;4.692;2022-10-26T08:50:33;101382.19;;;15.70;100.00
12247;BME280;6186;52.022;4.692;2022-10-26T08:53:25;101393.25;;;15.81;100.00
12247;BME280;6186;52.022;4.692;2022-10-26T08:56:04;101398.13;;;15.93;100.00
12247;BME280;6186;52.022;4.692;2022-10-26T08:58:49;101398.44;;;16.07;100.00
12247;BME280;6186;52.022;4.692;2022-10-26T09:01:16;101402.34;;;16.20;100.00
12247;BME280;6186;52.022;4.692;2022-10-26T09:03:42;101412.50;;;16.32;100.00
12247;BME280;6186;52.022;4.692;2022-10-26T09:06:18;101404.94;;;16.43;100.00
12247;BME280;6186;52.022;4.692;2022-10-26T09:26:11;101415.00;;;16.80;100.00
12247;BME280;6186;52.022;4.692;2022-10-26T09:28:39;101420.91;;;16.86;100.00
12247;BME280;6186;52.022;4.692;2022-10-26T09:31:08;101425.00;;;16.95;100.00
12247;BME280;6186;52.022;4.692;2022-10-26T09:33:39;101441.44;;;17.05;100.00
12247;BME280;6186;52.022;4.692;2022-10-26T09:36:12;101431.38;;;17.11;100.00
12247;BME280;6186;52.022;4.692;2022-10-26T09:43:42;101434.31;;;17.45;100.00
12247;BME280;6186;52.022;4.692;2022-10-26T09:46:19;101438.16;;;17.60;100.00
12247;BME280;6186;52.022;4.692;2022-10-26T09:48:53;101442.78;;;17.75;100.00
12247;BME280;6186;52.022;4.692;2022-10-26T09:51:20;101444.59;;;17.93;100.00
12247;BME280;6186;52.022;4.692;2022-10-26T09:53:47;101455.97;;;18.15;100.00
12247;BME280;6186;52.022;4.692;2022-10-26T09:56:13;101450.97;;;18.28;100.00
12247;BME280;6186;52.022;4.692;2022-10-26T09:58:46;101453.09;;;18.38;100.00
12247;BME280;6186;52.022;4.692;2022-10-26T10:04:16;101468.31;;;18.55;100.00
12247;BME280;6186;52.022;4.692;2022-10-26T10:06:47;101476.75;;;18.64;100.00
12247;BME280;6186;52.022;4.692;2022-10-26T10:09:15;101482.09;;;18.64;100.00
12247;BME280;6186;52.022;4.692;2022-10-26T10:12:00;101489.53;;;18.58;100.00
12247;BME280;6186;52.022;4.692;2022-10-26T10:16:57;101492.41;;;18.53;100.00
12247;BME280;6186;52.022;4.692;2022-10-26T10:19:28;101498.09;;;18.64;100.00
12247;BME280;6186;52.022;4.692;2022-10-26T10:21:56;101508.63;;;18.67;100.00
12247;BME280;6186;52.022;4.692;2022-10-26T10:27:18;101528.22;;;18.48;100.00
12247;BME280;6186;52.022;4.692;2022-10-26T10:29:49;101528.72;;;18.37;100.00
12247;BME280;6186;52.022;4.692;2022-10-26T10:32:20;101525.59;;;18.28;100.00
12247;BME280;6186;52.022;4.692;2022-10-26T10:34:49;101529.47;;;18.21;100.00
12247;BME280;6186;52.022;4.692;2022-10-26T10:37:36;101543.94;;;18.15;100.00
12247;BME280;6186;52.022;4.692;2022-10-26T10:40:07;101550.47;;;18.08;100.00
12247;BME280;6186;52.022;4.692;2022-10-26T10:42:36;101539.34;;;17.99;100.00
12247;BME280;6186;52.022;4.692;2022-10-26T10:45:04;101547.28;;;18.00;100.00
12247;BME280;6186;52.022;4.692;2022-10-26T10:47:34;101541.38;;;17.94;100.00
12247;BME280;6186;52.022;4.692;2022-10-26T10:50:04;101561.81;;;17.93;100.00
12247;BME280;6186;52.022;4.692;2022-10-26T10:52:34;101554.78;;;17.92;100.00
12247;BME280;6186;52.022;4.692;2022-10-26T10:57:59;101549.34;;;18.14;100.00
12247;BME280;6186;52.022;4.692;2022-10-26T11:00:28;101550.72;;;18.22;100.00
12247;BME280;6186;52.022;4.692;2022-10-26T11:06:11;101542.78;;;18.78;100.00
12247;BME280;6186;52.022;4.692;2022-10-26T11:11:40;101561.56;;;19.65;100.00
12247;BME280;6186;52.022;4.692;2022-10-26T11:14:41;101558.06;;;20.14;100.00
12247;BME280;6186;52.022;4.692;2022-10-26T11:17:24;101563.19;;;20.36;100.00
12247;BME280;6186;52.022;4.692;2022-10-26T11:19:57;101555.25;;;20.50;100.00
12247;BME280;6186;52.022;4.692;2022-10-26T11:22:28;101563.53;;;20.61;100.00
12247;BME280;6186;52.022;4.692;2022-10-26T11:24:58;101573.34;;;20.78;100.00
12247;BME280;6186;52.022;4.692;2022-10-26T11:27:34;101584.88;;;20.63;100.00
12247;BME280;6186;52.022;4.692;2022-10-26T11:30:02;101579.88;;;20.56;100.00
12247;BME280;6186;52.022;4.692;2022-10-26T11:35:31;101585.19;;;21.20;100.00
12247;BME280;6186;52.022;4.692;2022-10-26T11:38:05;101593.13;;;21.22;100.00
12247;BME280;6186;52.022;4.692;2022-10-26T11:40:52;101589.41;;;21.09;100.00
12247;BME280;6186;52.022;4.692;2022-10-26T11:43:34;101592.06;;;20.93;100.00
12247;BME280;6186;52.022;4.692;2022-10-26T11:46:06;101591.38;;;20.90;100.00
12247;BME280;6186;52.022;4.692;2022-10-26T11:48:39;101589.78;;;21.48;100.00
12247;BME280;6186;52.022;4.692;2022-10-26T11:51:16;101590.06;;;21.89;100.00
12247;BME280;6186;52.022;4.692;2022-10-26T11:53:46;101581.16;;;21.88;100.00
12247;BME280;6186;52.022;4.692;2022-10-26T11:56:27;101593.47;;;22.06;100.00
12247;BME280;6186;52.022;4.692;2022-10-26T11:58:55;101599.84;;;22.76;100.00
12247;BME280;6186;52.022;4.692;2022-10-26T12:01:21;101599.72;;;23.59;100.00
12247;BME280;6186;52.022;4.692;2022-10-26T12:03:50;101598.25;;;24.06;100.00
12247;BME280;6186;52.022;4.692;2022-10-26T12:06:19;101590.78;;;23.97;100.00
12247;BME280;6186;52.022;4.692;2022-10-26T12:08:53;101592.38;;;23.87;100.00
12247;BME280;6186;52.022;4.692;2022-10-26T12:11:44;101595.72;;;23.78;100.00
12247;BME280;6186;52.022;4.692;2022-10-26T12:17:38;101602.16;;;25.38;100.00
12247;BME280;6186;52.022;4.692;2022-10-26T12:22:43;101608.22;;;26.67;100.00
12247;BME280;6186;52.022;4.692;2022-10-26T12:35:37;101601.28;;;28.04;100.00
12247;BME280;6186;52.022;4.692;2022-10-26T12:48:49;101620.59;;;28.00;100.00
12247;BME280;6186;52.022;4.692;2022-10-26T12:54:01;101609.78;;;28.00;100.00
12247;BME280;6186;52.022;4.692;2022-10-26T12:56:39;101608.13;;;28.29;100.00
12247;BME280;6186;52.022;4.692;2022-10-26T12:59:18;101609.44;;;28.55;100.00
12247;BME280;6186;52.022;4.692;2022-10-26T13:02:05;101609.56;;;28.84;100.00
12247;BME280;6186;52.022;4.692;2022-10-26T13:07:25;101614.34;;;29.59;100.00
12247;BME280;6186;52.022;4.692;2022-10-26T13:09:58;101620.75;;;29.68;100.00
12247;BME280;6186;52.022;4.692;2022-10-26T13:12:25;101617.28;;;29.37;100.00
12247;BME280;6186;52.022;4.692;2022-10-26T13:15:02;101612.09;;;28.75;100.00
12247;BME280;6186;52.022;4.692;2022-10-26T13:17:30;101621.97;;;28.35;100.00
12247;BME280;6186;52.022;4.692;2022-10-26T13:19:58;101617.00;;;28.10;100.00
12247;BME280;6186;52.022;4.692;2022-10-26T13:22:25;101611.34;;;28.43;100.00
12247;BME280;6186;52.022;4.692;2022-10-26T13:24:53;101625.69;;;28.85;100.00
12247;BME280;6186;52.022;4.692;2022-10-26T13:27:22;101627.84;;;29.21;100.00
12247;BME280;6186;52.022;4.692;2022-10-26T13:32:57;101639.00;;;29.37;100.00
12247;BME280;6186;52.022;4.692;2022-10-26T13:35:24;101641.94;;;29.15;100.00
12247;BME280;6186;52.022;4.692;2022-10-26T13:37:53;101643.38;;;29.19;100.00
12247;BME280;6186;52.022;4.692;2022-10-26T13:40:22;101649.34;;;29.13;100.00
12247;BME280;6186;52.022;4.692;2022-10-26T13:42:52;101637.97;;;28.38;100.00
12247;BME280;6186;52.022;4.692;2022-10-26T13:45:22;101646.44;;;27.92;100.00
12247;BME280;6186;52.022;4.692;2022-10-26T13:48:00;101646.56;;;27.70;100.00
12247;BME280;6186;52.022;4.692;2022-10-26T13:50:31;101652.72;;;27.61;100.00
12247;BME280;6186;52.022;4.692;2022-10-26T13:53:07;101658.06;;;27.41;100.00
12247;BME280;6186;52.022;4.692;2022-10-26T13:56:00;101663.16;;;26.79;100.00
12247;BME280;6186;52.022;4.692;2022-10-26T13:58:32;101648.69;;;26.34;100.00
12247;BME280;6186;52.022;4.692;2022-10-26T14:03:33;101654.63;;;25.57;100.00
12247;BME280;6186;52.022;4.692;2022-10-26T14:05:58;101655.78;;;25.30;100.00
12247;BME280;6186;52.022;4.692;2022-10-26T14:08:24;101658.41;;;25.06;100.00
12247;BME280;6186;52.022;4.692;2022-10-26T14:10:55;101664.94;;;24.78;100.00
12247;BME280;6186;52.022;4.692;2022-10-26T14:13:23;101673.00;;;24.53;100.00
12247;BME280;6186;52.022;4.692;2022-10-26T14:15:51;101671.38;;;24.38;100.00
12247;BME280;6186;52.022;4.692;2022-10-26T14:18:21;101678.09;;;24.06;100.00
12247;BME280;6186;52.022;4.692;2022-10-26T14:21:03;101687.91;;;23.80;100.00
12247;BME280;6186;52.022;4.692;2022-10-26T14:23:57;101694.81;;;23.58;100.00
12247;BME280;6186;52.022;4.692;2022-10-26T14:26:28;101700.31;;;23.42;100.00
12247;BME280;6186;52.022;4.692;2022-10-26T14:28:59;101703.56;;;23.19;100.00
12247;BME280;6186;52.022;4.692;2022-10-26T14:31:28;101707.22;;;23.04;100.00
12247;BME280;6186;52.022;4.692;2022-10-26T14:33:55;101700.91;;;22.91;100.00
12247;BME280;6186;52.022;4.692;2022-10-26T14:36:31;101704.56;;;22.90;100.00
12247;BME280;6186;52.022;4.692;2022-10-26T14:39:02;101700.88;;;22.77;100.00
12247;BME280;6186;52.022;4.692;2022-10-26T14:41:30;101705.59;;;22.73;100.00
12247;BME280;6186;52.022;4.692;2022-10-26T14:43:58;101712.41;;;22.65;100.00
12247;BME280;6186;52.022;4.692;2022-10-26T14:46:26;101720.22;;;22.54;100.00
12247;BME280;6186;52.022;4.692;2022-10-26T14:48:58;101725.38;;;22.42;100.00
12247;BME280;6186;52.022;4.692;2022-10-26T14:51:29;101723.31;;;22.32;100.00
12247;BME280;6186;52.022;4.692;2022-10-26T14:53:59;101719.63;;;22.19;99.67
12247;BME280;6186;52.022;4.692;2022-10-26T14:56:43;101715.00;;;22.07;99.53
12247;BME280;6186;52.022;4.692;2022-10-26T14:59:24;101710.63;;;21.90;99.51